Vaughn, MT (59487)

9:45 PM MST on February 13, 2016 (GMT -0700)
North Vaughn | | Change Station
CLOSE
Current Station
Personal Weather Station
Location: Vaughn, MT
Elevation: 3520 ft
Nearby Weather Stations

Elev 3520 ft 47.59 °N, 111.57 °W | Updated 15 minutes ago

Mostly Cloudy
Mostly Cloudy
38.5 °F
Feels Like 31 °F
N
11.4
Wind Variable Wind from SSW

Today
High -- | Low -- °F
--% Chance of Precip.
Yesterday
High -- | Low -- °F
Precip. -- in
Pressure 30.04 in
Visibility 10.0 miles
Clouds Clear
Windchill 31 °F
Dew Point 22 °F
Humidity 52%
Rainfall in
Snow Depth Not available.
7:35 AM 5:46 PM
Waxing Crescent, 37% visible
METAR KGTF 140353Z 21011KT 10SM CLR 03/M07 A2997 RMK AO2 SLP173 T00281067
Pressure 30.04 in
Visibility 10.0 miles
Clouds Clear
Windchill 31 °F
Dew Point 22 °F
Humidity 52%
Rainfall in
Snow Depth Not available.
7:35 AM 5:46 PM
Waxing Crescent, 37% visible
METAR KGTF 140353Z 21011KT 10SM CLR 03/M07 A2997 RMK AO2 SLP173 T00281067

10-Day Weather Forecast

Almanac

Astronomy

Feb. 13, 2016 Rise Set
Actual Time
Civil Twilight
Nautical Twilight
Astronomical Twilight
Moon
Length of Visible Light
Length of Day
Tomorrow will be .
, % of the Moon is Illuminated

Today's Extremes

State Highs State Lows

Community

WunderPhotos

Upload Photos

1,892,746 photos uploaded!

WunderBlog® & News

Nearby

Air Quality

  Air Quality AQ Index Pollutant
Not available.

Snow Depth

Station Depth Elevation

Earthquake Activity

City Distance Mag. Time & Date
Minimum magnitude displayed is 2.5.

Coastal Water Temperatures

Place Temperature

Stations

Nearby Weather Stations

Station Location Temp. Windchill Dew Point Humidity Wind Precip. Elev Updated Type
                   

Watches & Warnings

There are currently no watches in effect.